sensor_id;sensor_type;location;lat;lon;timestamp;P1;durP1;ratioP1;P2;durP2;ratioP2
59998;SDS011;45859;51.378;6.736;2022-10-16T00:00:43;10.83;;;6.93;;
59998;SDS011;45859;51.378;6.736;2022-10-16T00:03:09;9.03;;;6.90;;
59998;SDS011;45859;51.378;6.736;2022-10-16T00:05:40;10.87;;;7.30;;
59998;SDS011;45859;51.378;6.736;2022-10-16T00:08:07;10.32;;;6.90;;
59998;SDS011;45859;51.378;6.736;2022-10-16T00:10:33;11.10;;;9.07;;
59998;SDS011;45859;51.378;6.736;2022-10-16T00:12:59;13.67;;;8.13;;
59998;SDS011;45859;51.378;6.736;2022-10-16T00:15:25;9.40;;;8.20;;
59998;SDS011;45859;51.378;6.736;2022-10-16T00:17:50;9.50;;;8.23;;
59998;SDS011;45859;51.378;6.736;2022-10-16T00:20:16;14.80;;;9.63;;
59998;SDS011;45859;51.378;6.736;2022-10-16T00:22:42;9.50;;;8.40;;
59998;SDS011;45859;51.378;6.736;2022-10-16T00:25:07;12.03;;;8.70;;
59998;SDS011;45859;51.378;6.736;2022-10-16T00:27:33;13.37;;;9.33;;
59998;SDS011;45859;51.378;6.736;2022-10-16T00:29:59;13.73;;;9.70;;
59998;SDS011;45859;51.378;6.736;2022-10-16T00:32:25;13.10;;;9.97;;
59998;SDS011;45859;51.378;6.736;2022-10-16T00:34:50;13.23;;;9.77;;
59998;SDS011;45859;51.378;6.736;2022-10-16T00:37:16;12.93;;;9.37;;
59998;SDS011;45859;51.378;6.736;2022-10-16T00:39:41;12.50;;;9.50;;
59998;SDS011;45859;51.378;6.736;2022-10-16T00:42:09;12.43;;;9.93;;
59998;SDS011;45859;51.378;6.736;2022-10-16T00:47:09;12.20;;;10.33;;
59998;SDS011;45859;51.378;6.736;2022-10-16T00:49:58;12.43;;;10.37;;
59998;SDS011;45859;51.378;6.736;2022-10-16T00:52:31;15.77;;;10.03;;
59998;SDS011;45859;51.378;6.736;2022-10-16T00:54:56;13.20;;;10.53;;
59998;SDS011;45859;51.378;6.736;2022-10-16T00:57:23;12.80;;;10.83;;
59998;SDS011;45859;51.378;6.736;2022-10-16T00:59:49;16.93;;;11.63;;
59998;SDS011;45859;51.378;6.736;2022-10-16T01:02:16;18.53;;;12.50;;
59998;SDS011;45859;51.378;6.736;2022-10-16T01:04:43;14.57;;;11.33;;
59998;SDS011;45859;51.378;6.736;2022-10-16T01:17:51;13.37;;;11.37;;
59998;SDS011;45859;51.378;6.736;2022-10-16T01:20:31;14.63;;;10.70;;
59998;SDS011;45859;51.378;6.736;2022-10-16T01:28:56;11.63;;;9.70;;
59998;SDS011;45859;51.378;6.736;2022-10-16T01:31:42;11.80;;;8.63;;
59998;SDS011;45859;51.378;6.736;2022-10-16T01:34:14;11.03;;;7.50;;
59998;SDS011;45859;51.378;6.736;2022-10-16T01:39:15;12.23;;;8.37;;
59998;SDS011;45859;51.378;6.736;2022-10-16T01:44:41;17.13;;;13.97;;
59998;SDS011;45859;51.378;6.736;2022-10-16T01:47:08;19.20;;;15.97;;
59998;SDS011;45859;51.378;6.736;2022-10-16T01:49:36;19.73;;;17.60;;
59998;SDS011;45859;51.378;6.736;2022-10-16T01:52:05;21.40;;;19.17;;
59998;SDS011;45859;51.378;6.736;2022-10-16T01:54:34;24.45;;;19.27;;
59998;SDS011;45859;51.378;6.736;2022-10-16T01:57:03;22.23;;;17.67;;
59998;SDS011;45859;51.378;6.736;2022-10-16T01:59:31;22.30;;;17.57;;
59998;SDS011;45859;51.378;6.736;2022-10-16T02:02:00;19.43;;;16.43;;
59998;SDS011;45859;51.378;6.736;2022-10-16T02:07:25;11.77;;;9.97;;
59998;SDS011;45859;51.378;6.736;2022-10-16T02:09:51;8.77;;;7.50;;
59998;SDS011;45859;51.378;6.736;2022-10-16T02:12:19;7.70;;;5.10;;
59998;SDS011;45859;51.378;6.736;2022-10-16T02:14:46;3.50;;;2.80;;
59998;SDS011;45859;51.378;6.736;2022-10-16T02:17:13;5.57;;;4.53;;
59998;SDS011;45859;51.378;6.736;2022-10-16T02:19:41;6.57;;;4.20;;
59998;SDS011;45859;51.378;6.736;2022-10-16T02:22:08;5.67;;;3.33;;
59998;SDS011;45859;51.378;6.736;2022-10-16T02:24:45;6.07;;;3.50;;
59998;SDS011;45859;51.378;6.736;2022-10-16T02:30:21;4.22;;;3.33;;
59998;SDS011;45859;51.378;6.736;2022-10-16T02:33:05;3.20;;;2.83;;
59998;SDS011;45859;51.378;6.736;2022-10-16T02:35:34;3.57;;;2.27;;
59998;SDS011;45859;51.378;6.736;2022-10-16T02:38:00;5.77;;;2.80;;
59998;SDS011;45859;51.378;6.736;2022-10-16T02:40:26;2.70;;;2.37;;
59998;SDS011;45859;51.378;6.736;2022-10-16T02:42:53;3.03;;;2.30;;
59998;SDS011;45859;51.378;6.736;2022-10-16T02:45:20;3.57;;;2.80;;
59998;SDS011;45859;51.378;6.736;2022-10-16T02:47:47;4.13;;;2.63;;
59998;SDS011;45859;51.378;6.736;2022-10-16T02:50:13;2.73;;;2.47;;
59998;SDS011;45859;51.378;6.736;2022-10-16T02:52:39;4.63;;;2.50;;
59998;SDS011;45859;51.378;6.736;2022-10-16T02:55:05;3.43;;;2.20;;
59998;SDS011;45859;51.378;6.736;2022-10-16T02:57:31;3.40;;;2.10;;
59998;SDS011;45859;51.378;6.736;2022-10-16T02:59:56;7.47;;;2.30;;
59998;SDS011;45859;51.378;6.736;2022-10-16T03:02:22;4.27;;;2.10;;
59998;SDS011;45859;51.378;6.736;2022-10-16T03:04:48;2.93;;;2.10;;
59998;SDS011;45859;51.378;6.736;2022-10-16T03:07:14;2.63;;;1.90;;
59998;SDS011;45859;51.378;6.736;2022-10-16T03:09:39;3.20;;;2.40;;
59998;SDS011;45859;51.378;6.736;2022-10-16T03:12:05;3.63;;;2.20;;
59998;SDS011;45859;51.378;6.736;2022-10-16T03:14:31;2.57;;;2.23;;
59998;SDS011;45859;51.378;6.736;2022-10-16T03:16:57;2.50;;;1.60;;
59998;SDS011;45859;51.378;6.736;2022-10-16T03:19:23;3.60;;;2.07;;
59998;SDS011;45859;51.378;6.736;2022-10-16T03:21:48;3.50;;;2.00;;
59998;SDS011;45859;51.378;6.736;2022-10-16T03:24:14;4.43;;;2.10;;
59998;SDS011;45859;51.378;6.736;2022-10-16T03:26:40;4.13;;;2.13;;
59998;SDS011;45859;51.378;6.736;2022-10-16T03:29:05;3.67;;;2.17;;
59998;SDS011;45859;51.378;6.736;2022-10-16T03:31:31;3.67;;;1.80;;
59998;SDS011;45859;51.378;6.736;2022-10-16T03:33:57;3.83;;;2.03;;
59998;SDS011;45859;51.378;6.736;2022-10-16T03:36:23;2.87;;;1.80;;
59998;SDS011;45859;51.378;6.736;2022-10-16T03:38:48;2.30;;;1.97;;
59998;SDS011;45859;51.378;6.736;2022-10-16T03:41:14;2.83;;;1.80;;
59998;SDS011;45859;51.378;6.736;2022-10-16T03:43:40;4.63;;;1.73;;
59998;SDS011;45859;51.378;6.736;2022-10-16T03:46:06;4.13;;;2.13;;
59998;SDS011;45859;51.378;6.736;2022-10-16T03:48:31;3.87;;;2.30;;
59998;SDS011;45859;51.378;6.736;2022-10-16T03:50:57;3.67;;;2.00;;
59998;SDS011;45859;51.378;6.736;2022-10-16T03:53:23;4.63;;;2.27;;
59998;SDS011;45859;51.378;6.736;2022-10-16T03:55:49;4.13;;;2.00;;
59998;SDS011;45859;51.378;6.736;2022-10-16T03:58:14;3.97;;;2.30;;
59998;SDS011;45859;51.378;6.736;2022-10-16T04:00:41;3.37;;;1.97;;
59998;SDS011;45859;51.378;6.736;2022-10-16T04:03:10;4.87;;;2.20;;
59998;SDS011;45859;51.378;6.736;2022-10-16T04:05:36;3.30;;;1.90;;
59998;SDS011;45859;51.378;6.736;2022-10-16T04:08:02;4.00;;;2.03;;
59998;SDS011;45859;51.378;6.736;2022-10-16T04:10:28;3.23;;;1.80;;
59998;SDS011;45859;51.378;6.736;2022-10-16T04:12:53;4.83;;;2.50;;
59998;SDS011;45859;51.378;6.736;2022-10-16T04:15:21;3.30;;;1.90;;
59998;SDS011;45859;51.378;6.736;2022-10-16T04:17:50;3.70;;;2.00;;
59998;SDS011;45859;51.378;6.736;2022-10-16T04:20:15;3.00;;;1.73;;
59998;SDS011;45859;51.378;6.736;2022-10-16T04:22:41;2.90;;;1.73;;
59998;SDS011;45859;51.378;6.736;2022-10-16T04:25:07;2.17;;;1.60;;
59998;SDS011;45859;51.378;6.736;2022-10-16T04:27:33;3.73;;;1.83;;
59998;SDS011;45859;51.378;6.736;2022-10-16T04:29:59;2.30;;;1.87;;
59998;SDS011;45859;51.378;6.736;2022-10-16T04:32:25;2.17;;;1.67;;
59998;SDS011;45859;51.378;6.736;2022-10-16T04:34:51;2.47;;;1.67;;
59998;SDS011;45859;51.378;6.736;2022-10-16T04:37:17;2.83;;;1.80;;
59998;SDS011;45859;51.378;6.736;2022-10-16T04:39:43;2.23;;;1.77;;
59998;SDS011;45859;51.378;6.736;2022-10-16T04:42:09;3.13;;;1.80;;
59998;SDS011;45859;51.378;6.736;2022-10-16T04:44:36;3.27;;;1.90;;
59998;SDS011;45859;51.378;6.736;2022-10-16T04:47:01;2.83;;;1.77;;
59998;SDS011;45859;51.378;6.736;2022-10-16T04:49:27;3.13;;;1.80;;
59998;SDS011;45859;51.378;6.736;2022-10-16T04:51:52;3.07;;;1.70;;
59998;SDS011;45859;51.378;6.736;2022-10-16T04:54:18;3.80;;;1.83;;
59998;SDS011;45859;51.378;6.736;2022-10-16T04:56:44;2.30;;;2.03;;
59998;SDS011;45859;51.378;6.736;2022-10-16T04:59:13;1.60;;;1.50;;
59998;SDS011;45859;51.378;6.736;2022-10-16T05:01:39;3.27;;;1.77;;
59998;SDS011;45859;51.378;6.736;2022-10-16T05:04:05;6.77;;;2.00;;
59998;SDS011;45859;51.378;6.736;2022-10-16T05:06:30;2.73;;;2.00;;
59998;SDS011;45859;51.378;6.736;2022-10-16T05:08:56;2.17;;;1.80;;
59998;SDS011;45859;51.378;6.736;2022-10-16T05:11:21;4.30;;;1.70;;
59998;SDS011;45859;51.378;6.736;2022-10-16T05:13:47;3.07;;;1.90;;
59998;SDS011;45859;51.378;6.736;2022-10-16T05:16:13;2.73;;;1.90;;
59998;SDS011;45859;51.378;6.736;2022-10-16T05:18:38;3.67;;;1.80;;
59998;SDS011;45859;51.378;6.736;2022-10-16T05:21:04;2.17;;;1.63;;
59998;SDS011;45859;51.378;6.736;2022-10-16T05:23:30;1.90;;;1.73;;
59998;SDS011;45859;51.378;6.736;2022-10-16T05:25:56;5.53;;;2.10;;
59998;SDS011;45859;51.378;6.736;2022-10-16T05:28:27;3.73;;;2.20;;
59998;SDS011;45859;51.378;6.736;2022-10-16T05:30:54;4.57;;;1.77;;
59998;SDS011;45859;51.378;6.736;2022-10-16T05:33:20;3.10;;;1.93;;
59998;SDS011;45859;51.378;6.736;2022-10-16T05:35:46;2.00;;;1.80;;
59998;SDS011;45859;51.378;6.736;2022-10-16T05:38:12;2.73;;;1.90;;
59998;SDS011;45859;51.378;6.736;2022-10-16T05:40:38;5.03;;;2.67;;
59998;SDS011;45859;51.378;6.736;2022-10-16T05:43:04;4.63;;;3.43;;
59998;SDS011;45859;51.378;6.736;2022-10-16T05:45:30;3.03;;;2.70;;
59998;SDS011;45859;51.378;6.736;2022-10-16T05:47:55;2.00;;;1.73;;
59998;SDS011;45859;51.378;6.736;2022-10-16T05:50:21;5.83;;;2.03;;
59998;SDS011;45859;51.378;6.736;2022-10-16T05:52:46;2.73;;;1.67;;
59998;SDS011;45859;51.378;6.736;2022-10-16T05:55:12;2.37;;;1.80;;
59998;SDS011;45859;51.378;6.736;2022-10-16T05:57:38;4.00;;;1.90;;
59998;SDS011;45859;51.378;6.736;2022-10-16T06:00:04;3.20;;;2.27;;
59998;SDS011;45859;51.378;6.736;2022-10-16T06:02:30;3.27;;;2.23;;
59998;SDS011;45859;51.378;6.736;2022-10-16T06:04:56;5.87;;;2.50;;
59998;SDS011;45859;51.378;6.736;2022-10-16T06:07:21;2.10;;;1.90;;
59998;SDS011;45859;51.378;6.736;2022-10-16T06:09:51;2.60;;;2.30;;
59998;SDS011;45859;51.378;6.736;2022-10-16T06:12:17;4.53;;;1.00;;
59998;SDS011;45859;51.378;6.736;2022-10-16T06:14:44;1.17;;;1.07;;
59998;SDS011;45859;51.378;6.736;2022-10-16T06:17:11;3.83;;;2.40;;
59998;SDS011;45859;51.378;6.736;2022-10-16T06:19:38;2.50;;;2.30;;
59998;SDS011;45859;51.378;6.736;2022-10-16T06:22:04;2.37;;;2.17;;
59998;SDS011;45859;51.378;6.736;2022-10-16T06:24:30;3.50;;;2.70;;
59998;SDS011;45859;51.378;6.736;2022-10-16T06:26:55;4.13;;;2.13;;
59998;SDS011;45859;51.378;6.736;2022-10-16T06:29:21;2.47;;;2.00;;
59998;SDS011;45859;51.378;6.736;2022-10-16T06:31:46;3.00;;;2.10;;
59998;SDS011;45859;51.378;6.736;2022-10-16T06:34:12;3.93;;;2.70;;
59998;SDS011;45859;51.378;6.736;2022-10-16T06:36:38;2.70;;;2.20;;
59998;SDS011;45859;51.378;6.736;2022-10-16T06:39:04;4.10;;;2.40;;
59998;SDS011;45859;51.378;6.736;2022-10-16T06:41:32;5.57;;;2.93;;
59998;SDS011;45859;51.378;6.736;2022-10-16T06:43:58;5.90;;;2.50;;
59998;SDS011;45859;51.378;6.736;2022-10-16T06:46:24;2.57;;;2.20;;
59998;SDS011;45859;51.378;6.736;2022-10-16T06:48:51;3.17;;;2.37;;
59998;SDS011;45859;51.378;6.736;2022-10-16T06:51:18;2.23;;;1.90;;
59998;SDS011;45859;51.378;6.736;2022-10-16T06:53:46;3.17;;;2.23;;
59998;SDS011;45859;51.378;6.736;2022-10-16T06:56:17;2.67;;;2.20;;
59998;SDS011;45859;51.378;6.736;2022-10-16T06:58:47;3.90;;;2.30;;
59998;SDS011;45859;51.378;6.736;2022-10-16T07:01:14;2.70;;;2.30;;
59998;SDS011;45859;51.378;6.736;2022-10-16T07:03:41;3.97;;;2.47;;
59998;SDS011;45859;51.378;6.736;2022-10-16T07:06:10;3.83;;;2.60;;
59998;SDS011;45859;51.378;6.736;2022-10-16T07:08:38;3.10;;;2.47;;
59998;SDS011;45859;51.378;6.736;2022-10-16T07:11:06;4.80;;;2.40;;
59998;SDS011;45859;51.378;6.736;2022-10-16T07:13:33;3.53;;;2.87;;
59998;SDS011;45859;51.378;6.736;2022-10-16T07:16:09;5.47;;;3.00;;
59998;SDS011;45859;51.378;6.736;2022-10-16T07:18:37;4.50;;;3.13;;
59998;SDS011;45859;51.378;6.736;2022-10-16T07:21:08;2.63;;;1.27;;
59998;SDS011;45859;51.378;6.736;2022-10-16T07:23:34;4.03;;;3.00;;
59998;SDS011;45859;51.378;6.736;2022-10-16T07:26:00;3.43;;;2.60;;
59998;SDS011;45859;51.378;6.736;2022-10-16T07:28:25;7.13;;;2.87;;
59998;SDS011;45859;51.378;6.736;2022-10-16T07:30:51;2.67;;;2.47;;
59998;SDS011;45859;51.378;6.736;2022-10-16T07:33:17;2.60;;;2.40;;
59998;SDS011;45859;51.378;6.736;2022-10-16T07:35:49;2.93;;;2.30;;
59998;SDS011;45859;51.378;6.736;2022-10-16T07:38:19;3.50;;;2.27;;
59998;SDS011;45859;51.378;6.736;2022-10-16T07:40:45;3.97;;;2.17;;
59998;SDS011;45859;51.378;6.736;2022-10-16T07:43:11;2.50;;;2.10;;
59998;SDS011;45859;51.378;6.736;2022-10-16T07:45:37;3.10;;;2.10;;
59998;SDS011;45859;51.378;6.736;2022-10-16T07:48:11;2.70;;;2.03;;
59998;SDS011;45859;51.378;6.736;2022-10-16T07:50:36;5.40;;;2.37;;
59998;SDS011;45859;51.378;6.736;2022-10-16T07:53:02;5.60;;;1.90;;
59998;SDS011;45859;51.378;6.736;2022-10-16T07:55:28;3.93;;;1.97;;
59998;SDS011;45859;51.378;6.736;2022-10-16T07:57:54;2.30;;;1.70;;
59998;SDS011;45859;51.378;6.736;2022-10-16T08:00:20;3.37;;;1.83;;
59998;SDS011;45859;51.378;6.736;2022-10-16T08:02:45;2.27;;;1.60;;
59998;SDS011;45859;51.378;6.736;2022-10-16T08:05:11;2.17;;;1.50;;
59998;SDS011;45859;51.378;6.736;2022-10-16T08:07:37;1.93;;;1.60;;
59998;SDS011;45859;51.378;6.736;2022-10-16T08:10:03;4.75;;;1.40;;
59998;SDS011;45859;51.378;6.736;2022-10-16T08:12:29;1.30;;;1.20;;
59998;SDS011;45859;51.378;6.736;2022-10-16T08:14:55;3.70;;;0.90;;
59998;SDS011;45859;51.378;6.736;2022-10-16T08:17:20;3.60;;;0.90;;
59998;SDS011;45859;51.378;6.736;2022-10-16T08:19:46;2.38;;;1.13;;
59998;SDS011;45859;51.378;6.736;2022-10-16T08:22:12;2.13;;;0.90;;
59998;SDS011;45859;51.378;6.736;2022-10-16T08:24:38;1.52;;;1.27;;
59998;SDS011;45859;51.378;6.736;2022-10-16T08:27:04;2.47;;;1.10;;
59998;SDS011;45859;51.378;6.736;2022-10-16T08:29:30;5.25;;;1.20;;
59998;SDS011;45859;51.378;6.736;2022-10-16T08:31:56;2.50;;;1.08;;
59998;SDS011;45859;51.378;6.736;2022-10-16T08:34:21;2.05;;;1.02;;
59998;SDS011;45859;51.378;6.736;2022-10-16T08:36:47;3.35;;;1.20;;
59998;SDS011;45859;51.378;6.736;2022-10-16T08:39:12;2.42;;;1.10;;
59998;SDS011;45859;51.378;6.736;2022-10-16T08:41:55;3.05;;;1.05;;
59998;SDS011;45859;51.378;6.736;2022-10-16T08:50:09;4.35;;;1.20;;
59998;SDS011;45859;51.378;6.736;2022-10-16T08:52:38;3.10;;;1.02;;
59998;SDS011;45859;51.378;6.736;2022-10-16T08:55:08;3.83;;;1.17;;
59998;SDS011;45859;51.378;6.736;2022-10-16T08:57:45;3.97;;;1.30;;
59998;SDS011;45859;51.378;6.736;2022-10-16T09:00:13;7.35;;;1.70;;
59998;SDS011;45859;51.378;6.736;2022-10-16T09:11:20;4.53;;;1.48;;
59998;SDS011;45859;51.378;6.736;2022-10-16T09:16:38;4.28;;;1.80;;
59998;SDS011;45859;51.378;6.736;2022-10-16T09:19:12;3.53;;;1.40;;
59998;SDS011;45859;51.378;6.736;2022-10-16T09:21:44;6.10;;;2.30;;
59998;SDS011;45859;51.378;6.736;2022-10-16T09:24:19;7.47;;;4.00;;
59998;SDS011;45859;51.378;6.736;2022-10-16T09:26:47;5.50;;;1.60;;
59998;SDS011;45859;51.378;6.736;2022-10-16T09:29:16;5.15;;;1.67;;
59998;SDS011;45859;51.378;6.736;2022-10-16T09:31:47;6.22;;;1.83;;
59998;SDS011;45859;51.378;6.736;2022-10-16T09:34:17;6.13;;;1.63;;
59998;SDS011;45859;51.378;6.736;2022-10-16T09:36:49;6.75;;;2.80;;
59998;SDS011;45859;51.378;6.736;2022-10-16T09:39:16;2.22;;;1.13;;
59998;SDS011;45859;51.378;6.736;2022-10-16T09:41:42;6.75;;;1.73;;
59998;SDS011;45859;51.378;6.736;2022-10-16T09:44:17;6.43;;;1.80;;
59998;SDS011;45859;51.378;6.736;2022-10-16T09:47:00;3.55;;;1.23;;
59998;SDS011;45859;51.378;6.736;2022-10-16T09:49:29;7.88;;;2.65;;
59998;SDS011;45859;51.378;6.736;2022-10-16T09:52:05;7.80;;;5.88;;
59998;SDS011;45859;51.378;6.736;2022-10-16T09:54:36;15.00;;;7.35;;
59998;SDS011;45859;51.378;6.736;2022-10-16T09:57:16;6.47;;;1.92;;
59998;SDS011;45859;51.378;6.736;2022-10-16T09:59:48;3.33;;;1.80;;
59998;SDS011;45859;51.378;6.736;2022-10-16T10:02:16;6.30;;;2.78;;
59998;SDS011;45859;51.378;6.736;2022-10-16T10:04:47;5.28;;;2.17;;
59998;SDS011;45859;51.378;6.736;2022-10-16T10:07:19;5.22;;;1.38;;
59998;SDS011;45859;51.378;6.736;2022-10-16T10:09:51;6.95;;;1.23;;
59998;SDS011;45859;51.378;6.736;2022-10-16T10:14:44;3.80;;;1.23;;
59998;SDS011;45859;51.378;6.736;2022-10-16T10:17:26;4.03;;;1.08;;
59998;SDS011;45859;51.378;6.736;2022-10-16T10:22:46;1.98;;;0.63;;
59998;SDS011;45859;51.378;6.736;2022-10-16T10:30:39;2.15;;;0.68;;
59998;SDS011;45859;51.378;6.736;2022-10-16T10:38:25;4.65;;;0.88;;
59998;SDS011;45859;51.378;6.736;2022-10-16T10:46:35;4.32;;;1.17;;
59998;SDS011;45859;51.378;6.736;2022-10-16T10:51:52;4.38;;;0.82;;
59998;SDS011;45859;51.378;6.736;2022-10-16T10:57:45;2.80;;;0.77;;
59998;SDS011;45859;51.378;6.736;2022-10-16T11:02:41;3.78;;;0.80;;
59998;SDS011;45859;51.378;6.736;2022-10-16T11:05:22;1.58;;;0.82;;
59998;SDS011;45859;51.378;6.736;2022-10-16T11:13:35;2.95;;;0.68;;
59998;SDS011;45859;51.378;6.736;2022-10-16T11:16:20;4.27;;;0.70;;
59998;SDS011;45859;51.378;6.736;2022-10-16T11:22:06;3.63;;;1.35;;
59998;SDS011;45859;51.378;6.736;2022-10-16T11:25:11;2.88;;;0.80;;
59998;SDS011;45859;51.378;6.736;2022-10-16T11:30:39;2.05;;;0.57;;
59998;SDS011;45859;51.378;6.736;2022-10-16T11:33:12;2.08;;;0.68;;
59998;SDS011;45859;51.378;6.736;2022-10-16T11:38:41;2.25;;;0.82;;
59998;SDS011;45859;51.378;6.736;2022-10-16T11:41:21;3.30;;;1.10;;
59998;SDS011;45859;51.378;6.736;2022-10-16T11:44:16;3.08;;;0.85;;
59998;SDS011;45859;51.378;6.736;2022-10-16T11:49:50;5.57;;;1.00;;
59998;SDS011;45859;51.378;6.736;2022-10-16T11:52:44;1.97;;;0.80;;
59998;SDS011;45859;51.378;6.736;2022-10-16T11:55:36;3.00;;;0.95;;
59998;SDS011;45859;51.378;6.736;2022-10-16T11:58:48;2.78;;;0.82;;
59998;SDS011;45859;51.378;6.736;2022-10-16T12:09:26;2.17;;;0.90;;
59998;SDS011;45859;51.378;6.736;2022-10-16T12:11:56;4.03;;;0.77;;
59998;SDS011;45859;51.378;6.736;2022-10-16T12:14:33;1.58;;;0.93;;
59998;SDS011;45859;51.378;6.736;2022-10-16T12:17:50;1.55;;;0.70;;
59998;SDS011;45859;51.378;6.736;2022-10-16T12:22:41;2.53;;;0.93;;
59998;SDS011;45859;51.378;6.736;2022-10-16T12:25:27;5.63;;;0.80;;
59998;SDS011;45859;51.378;6.736;2022-10-16T12:30:36;2.95;;;0.85;;
59998;SDS011;45859;51.378;6.736;2022-10-16T12:33:06;4.40;;;1.02;;
59998;SDS011;45859;51.378;6.736;2022-10-16T12:35:47;2.28;;;0.90;;
59998;SDS011;45859;51.378;6.736;2022-10-16T12:38:16;2.65;;;0.70;;
59998;SDS011;45859;51.378;6.736;2022-10-16T12:40:45;1.17;;;0.50;;
59998;SDS011;45859;51.378;6.736;2022-10-16T12:45:45;4.63;;;1.23;;
59998;SDS011;45859;51.378;6.736;2022-10-16T12:48:18;4.88;;;1.13;;
59998;SDS011;45859;51.378;6.736;2022-10-16T12:50:46;5.20;;;1.60;;
59998;SDS011;45859;51.378;6.736;2022-10-16T12:55:54;3.20;;;0.95;;
59998;SDS011;45859;51.378;6.736;2022-10-16T12:58:33;3.40;;;1.00;;
59998;SDS011;45859;51.378;6.736;2022-10-16T13:01:27;6.07;;;1.45;;
59998;SDS011;45859;51.378;6.736;2022-10-16T13:09:28;3.60;;;0.85;;
59998;SDS011;45859;51.378;6.736;2022-10-16T13:19:44;2.85;;;0.90;;
59998;SDS011;45859;51.378;6.736;2022-10-16T13:28:27;2.10;;;0.70;;
59998;SDS011;45859;51.378;6.736;2022-10-16T13:30:51;3.58;;;0.80;;
59998;SDS011;45859;51.378;6.736;2022-10-16T13:33:26;2.92;;;0.70;;
59998;SDS011;45859;51.378;6.736;2022-10-16T13:36:00;2.95;;;1.30;;
59998;SDS011;45859;51.378;6.736;2022-10-16T13:38:27;4.10;;;1.00;;
59998;SDS011;45859;51.378;6.736;2022-10-16T13:40:58;2.30;;;0.82;;
59998;SDS011;45859;51.378;6.736;2022-10-16T13:44:12;1.90;;;0.90;;
59998;SDS011;45859;51.378;6.736;2022-10-16T13:46:36;2.35;;;1.00;;
59998;SDS011;45859;51.378;6.736;2022-10-16T13:49:02;2.35;;;0.57;;
59998;SDS011;45859;51.378;6.736;2022-10-16T13:51:30;1.15;;;0.40;;
59998;SDS011;45859;51.378;6.736;2022-10-16T13:53:57;2.55;;;0.60;;
59998;SDS011;45859;51.378;6.736;2022-10-16T13:56:27;2.47;;;0.60;;
59998;SDS011;45859;51.378;6.736;2022-10-16T13:59:01;2.33;;;0.60;;
59998;SDS011;45859;51.378;6.736;2022-10-16T14:01:31;2.25;;;0.80;;
59998;SDS011;45859;51.378;6.736;2022-10-16T14:04:09;1.67;;;0.75;;
59998;SDS011;45859;51.378;6.736;2022-10-16T14:06:39;2.30;;;0.75;;
59998;SDS011;45859;51.378;6.736;2022-10-16T14:11:36;2.70;;;0.80;;
59998;SDS011;45859;51.378;6.736;2022-10-16T14:14:10;5.53;;;1.13;;
59998;SDS011;45859;51.378;6.736;2022-10-16T14:16:40;3.50;;;0.80;;
59998;SDS011;45859;51.378;6.736;2022-10-16T14:19:15;2.88;;;0.90;;
59998;SDS011;45859;51.378;6.736;2022-10-16T14:21:45;2.25;;;0.80;;
59998;SDS011;45859;51.378;6.736;2022-10-16T14:24:33;4.93;;;1.20;;
59998;SDS011;45859;51.378;6.736;2022-10-16T14:26:59;2.35;;;0.70;;
59998;SDS011;45859;51.378;6.736;2022-10-16T14:29:26;1.45;;;0.60;;
59998;SDS011;45859;51.378;6.736;2022-10-16T14:31:57;2.60;;;0.90;;
59998;SDS011;45859;51.378;6.736;2022-10-16T14:34:29;2.40;;;0.90;;
59998;SDS011;45859;51.378;6.736;2022-10-16T14:37:22;2.85;;;0.90;;
59998;SDS011;45859;51.378;6.736;2022-10-16T14:39:50;3.08;;;1.05;;
59998;SDS011;45859;51.378;6.736;2022-10-16T14:42:17;2.42;;;0.70;;
59998;SDS011;45859;51.378;6.736;2022-10-16T14:44:44;4.15;;;0.60;;
59998;SDS011;45859;51.378;6.736;2022-10-16T14:47:16;4.10;;;0.57;;
59998;SDS011;45859;51.378;6.736;2022-10-16T14:49:47;2.40;;;0.60;;
59998;SDS011;45859;51.378;6.736;2022-10-16T14:52:13;4.15;;;0.57;;
59998;SDS011;45859;51.378;6.736;2022-10-16T14:54:39;2.80;;;0.85;;
59998;SDS011;45859;51.378;6.736;2022-10-16T14:57:05;1.35;;;0.68;;
59998;SDS011;45859;51.378;6.736;2022-10-16T14:59:40;4.85;;;1.05;;
59998;SDS011;45859;51.378;6.736;2022-10-16T15:04:56;3.75;;;0.70;;
59998;SDS011;45859;51.378;6.736;2022-10-16T15:07:21;3.50;;;0.52;;
59998;SDS011;45859;51.378;6.736;2022-10-16T15:09:47;2.42;;;0.90;;
59998;SDS011;45859;51.378;6.736;2022-10-16T15:12:13;2.65;;;0.70;;
59998;SDS011;45859;51.378;6.736;2022-10-16T15:14:39;2.95;;;0.73;;
59998;SDS011;45859;51.378;6.736;2022-10-16T15:17:04;3.40;;;1.02;;
59998;SDS011;45859;51.378;6.736;2022-10-16T15:19:30;2.65;;;1.20;;
59998;SDS011;45859;51.378;6.736;2022-10-16T15:21:56;3.72;;;1.30;;
59998;SDS011;45859;51.378;6.736;2022-10-16T15:24:22;4.25;;;1.00;;
59998;SDS011;45859;51.378;6.736;2022-10-16T15:26:47;4.90;;;1.30;;
59998;SDS011;45859;51.378;6.736;2022-10-16T15:29:14;6.25;;;1.20;;
59998;SDS011;45859;51.378;6.736;2022-10-16T15:31:40;2.63;;;0.90;;
59998;SDS011;45859;51.378;6.736;2022-10-16T15:34:08;4.05;;;0.75;;
59998;SDS011;45859;51.378;6.736;2022-10-16T15:36:35;4.57;;;1.70;;
59998;SDS011;45859;51.378;6.736;2022-10-16T15:39:03;14.75;;;9.27;;
59998;SDS011;45859;51.378;6.736;2022-10-16T15:41:29;7.05;;;4.18;;
59998;SDS011;45859;51.378;6.736;2022-10-16T15:43:55;45.45;;;32.60;;
59998;SDS011;45859;51.378;6.736;2022-10-16T15:46:21;7.50;;;5.07;;
59998;SDS011;45859;51.378;6.736;2022-10-16T15:48:48;3.25;;;1.38;;
59998;SDS011;45859;51.378;6.736;2022-10-16T15:51:15;2.75;;;1.35;;
59998;SDS011;45859;51.378;6.736;2022-10-16T15:53:41;2.67;;;1.55;;
59998;SDS011;45859;51.378;6.736;2022-10-16T15:56:08;2.85;;;1.60;;
59998;SDS011;45859;51.378;6.736;2022-10-16T15:58:35;3.42;;;2.20;;
59998;SDS011;45859;51.378;6.736;2022-10-16T16:01:01;2.35;;;1.90;;
59998;SDS011;45859;51.378;6.736;2022-10-16T16:03:28;5.80;;;2.97;;
59998;SDS011;45859;51.378;6.736;2022-10-16T16:05:54;226.27;;;143.90;;
59998;SDS011;45859;51.378;6.736;2022-10-16T16:08:20;105.93;;;70.55;;
59998;SDS011;45859;51.378;6.736;2022-10-16T16:13:32;319.65;;;196.85;;
59998;SDS011;45859;51.378;6.736;2022-10-16T16:15:58;279.08;;;172.77;;
59998;SDS011;45859;51.378;6.736;2022-10-16T16:18:24;111.55;;;63.80;;
59998;SDS011;45859;51.378;6.736;2022-10-16T16:20:50;49.40;;;31.77;;
59998;SDS011;45859;51.378;6.736;2022-10-16T16:23:16;13.20;;;8.10;;
59998;SDS011;45859;51.378;6.736;2022-10-16T16:25:42;10.20;;;4.85;;
59998;SDS011;45859;51.378;6.736;2022-10-16T16:28:08;8.20;;;4.13;;
59998;SDS011;45859;51.378;6.736;2022-10-16T16:30:35;65.43;;;44.47;;
59998;SDS011;45859;51.378;6.736;2022-10-16T16:33:02;156.18;;;109.93;;
59998;SDS011;45859;51.378;6.736;2022-10-16T16:35:27;298.98;;;175.95;;
59998;SDS011;45859;51.378;6.736;2022-10-16T16:37:53;117.75;;;88.35;;
59998;SDS011;45859;51.378;6.736;2022-10-16T16:40:19;67.20;;;56.67;;
59998;SDS011;45859;51.378;6.736;2022-10-16T16:42:46;13.52;;;12.13;;
59998;SDS011;45859;51.378;6.736;2022-10-16T16:45:13;24.92;;;20.02;;
59998;SDS011;45859;51.378;6.736;2022-10-16T16:47:39;7.35;;;3.95;;
59998;SDS011;45859;51.378;6.736;2022-10-16T16:50:04;11.50;;;8.13;;
59998;SDS011;45859;51.378;6.736;2022-10-16T16:52:31;6.53;;;5.85;;
59998;SDS011;45859;51.378;6.736;2022-10-16T16:54:58;12.45;;;11.07;;
59998;SDS011;45859;51.378;6.736;2022-10-16T16:57:23;5.88;;;3.67;;
59998;SDS011;45859;51.378;6.736;2022-10-16T16:59:49;11.93;;;10.75;;
59998;SDS011;45859;51.378;6.736;2022-10-16T17:02:16;6.70;;;4.50;;
59998;SDS011;45859;51.378;6.736;2022-10-16T17:04:42;5.30;;;3.58;;
59998;SDS011;45859;51.378;6.736;2022-10-16T17:07:07;6.15;;;2.25;;
59998;SDS011;45859;51.378;6.736;2022-10-16T17:09:33;5.45;;;2.80;;
59998;SDS011;45859;51.378;6.736;2022-10-16T17:11:59;7.47;;;4.57;;
59998;SDS011;45859;51.378;6.736;2022-10-16T17:14:24;5.47;;;2.97;;